createdAt,value
2023-06-04T00:02:01.004Z,5.47
2023-06-04T00:04:05.649Z,4.53
2023-06-04T00:06:09.790Z,4.00
2023-06-04T00:08:13.732Z,3.83
2023-06-04T00:10:18.563Z,4.15
2023-06-04T00:12:24.045Z,8.95
2023-06-04T00:14:28.606Z,4.57
2023-06-04T00:16:32.139Z,4.93
2023-06-04T00:18:36.497Z,4.00
2023-06-04T00:20:40.574Z,3.78
2023-06-04T00:22:45.016Z,5.90
2023-06-04T00:24:48.625Z,4.75
2023-06-04T00:26:52.354Z,5.72
2023-06-04T00:28:58.516Z,3.90
2023-06-04T00:31:02.702Z,3.72
2023-06-04T00:33:08.363Z,6.28
2023-06-04T00:35:13.342Z,5.35
2023-06-04T00:37:18.370Z,4.82
2023-06-04T00:39:22.642Z,5.00
2023-06-04T00:41:27.876Z,4.22
2023-06-04T00:45:38.550Z,4.65
2023-06-04T00:47:43.095Z,4.25
2023-06-04T00:49:47.212Z,4.13
2023-06-04T00:51:51.551Z,3.50
2023-06-04T00:53:55.795Z,3.42
2023-06-04T00:55:59.713Z,3.60
2023-06-04T00:58:05.434Z,3.58
2023-06-04T01:00:10.129Z,3.40
2023-06-04T01:02:21.020Z,3.60
2023-06-04T01:04:32.014Z,3.67
2023-06-04T01:08:46.924Z,3.72
2023-06-04T01:10:54.076Z,5.97
2023-06-04T01:12:58.538Z,4.25
2023-06-04T01:15:02.484Z,4.30
2023-06-04T01:20:06.351Z,3.17
2023-06-04T01:22:22.202Z,3.30
2023-06-04T01:24:30.186Z,3.65
2023-06-04T01:26:34.473Z,3.50
2023-06-04T01:28:38.941Z,3.30
2023-06-04T01:30:47.928Z,3.90
2023-06-04T01:32:52.470Z,3.72
2023-06-04T01:34:59.811Z,3.20
2023-06-04T01:37:05.758Z,3.33
2023-06-04T01:39:11.573Z,3.50
2023-06-04T01:41:15.465Z,4.03
2023-06-04T01:43:19.737Z,2.97
2023-06-04T01:45:24.090Z,6.13
2023-06-04T01:47:28.467Z,3.50
2023-06-04T01:49:33.651Z,3.42
2023-06-04T01:51:38.752Z,3.72
2023-06-04T01:53:42.655Z,3.20
2023-06-04T01:55:46.526Z,3.97
2023-06-04T01:57:51.044Z,3.50
2023-06-04T01:59:57.026Z,3.85
2023-06-04T02:02:03.684Z,3.13
2023-06-04T02:04:07.801Z,2.90
2023-06-04T02:06:12.587Z,3.17
2023-06-04T02:08:20.299Z,3.30
2023-06-04T02:10:25.847Z,3.45
2023-06-04T02:12:31.031Z,3.03
2023-06-04T02:14:35.224Z,3.72
2023-06-04T02:16:40.280Z,3.42
2023-06-04T02:18:44.104Z,3.13
2023-06-04T02:20:49.176Z,4.38
2023-06-04T02:22:54.109Z,3.42
2023-06-04T02:25:00.458Z,2.83
2023-06-04T02:27:04.322Z,2.97
2023-06-04T02:29:08.098Z,3.42
2023-06-04T02:31:11.385Z,2.92
2023-06-04T02:33:16.237Z,4.03
2023-06-04T02:35:22.498Z,3.42
2023-06-04T02:37:26.381Z,3.28
2023-06-04T02:39:31.293Z,2.78
2023-06-04T02:41:36.583Z,3.00
2023-06-04T02:43:40.743Z,2.72
2023-06-04T02:45:46.068Z,2.95
2023-06-04T02:47:51.026Z,3.03
2023-06-04T02:49:56.204Z,3.10
2023-06-04T02:52:00.458Z,3.25
2023-06-04T02:54:04.614Z,2.97
2023-06-04T02:56:08.858Z,3.90
2023-06-04T02:58:16.744Z,3.00
2023-06-04T03:00:21.381Z,3.15
2023-06-04T03:02:26.252Z,2.90
2023-06-04T03:04:35.158Z,2.92
2023-06-04T03:06:40.336Z,2.90
2023-06-04T03:08:45.547Z,2.78
2023-06-04T03:10:49.238Z,3.15
2023-06-04T03:12:53.663Z,2.40
2023-06-04T03:14:59.058Z,2.83
2023-06-04T03:17:08.953Z,3.03
2023-06-04T03:19:13.912Z,2.45
2023-06-04T03:21:18.361Z,2.80
2023-06-04T03:23:22.793Z,3.55
2023-06-04T03:25:26.638Z,3.00
2023-06-04T03:27:31.781Z,2.92
2023-06-04T03:29:36.071Z,2.90
2023-06-04T03:31:43.247Z,2.88
2023-06-04T03:33:47.094Z,2.45
2023-06-04T03:35:53.686Z,2.53
2023-06-04T03:37:58.156Z,2.67
2023-06-04T03:40:03.635Z,2.65
2023-06-04T03:42:08.166Z,2.70
2023-06-04T03:44:11.740Z,3.05
2023-06-04T03:46:15.066Z,3.03
2023-06-04T03:48:19.926Z,2.30
2023-06-04T03:50:23.457Z,2.28
2023-06-04T03:52:29.122Z,2.67
2023-06-04T03:54:35.159Z,2.97
2023-06-04T03:56:39.363Z,2.65
2023-06-04T03:58:45.962Z,2.85
2023-06-04T04:00:49.683Z,2.55
2023-06-04T04:02:53.706Z,2.80
2023-06-04T04:05:02.502Z,2.85
2023-06-04T04:07:06.122Z,2.78
2023-06-04T04:09:10.046Z,3.47
2023-06-04T04:11:14.813Z,2.30
2023-06-04T04:13:18.220Z,2.80
2023-06-04T04:15:21.686Z,2.92
2023-06-04T04:17:26.421Z,3.00
2023-06-04T04:19:31.165Z,2.35
2023-06-04T04:21:38.996Z,2.75
2023-06-04T04:23:43.316Z,2.50
2023-06-04T04:25:49.302Z,3.25
2023-06-04T04:27:53.698Z,2.53
2023-06-04T04:30:01.833Z,2.83
2023-06-04T04:32:12.475Z,3.65
2023-06-04T04:34:22.939Z,4.65
2023-06-04T04:36:27.430Z,3.05
2023-06-04T04:38:34.989Z,3.42
2023-06-04T04:40:41.855Z,2.50
2023-06-04T04:42:48.310Z,3.00
2023-06-04T04:44:54.583Z,2.90
2023-06-04T04:47:01.759Z,3.15
2023-06-04T04:49:06.786Z,3.33
2023-06-04T04:53:16.082Z,2.42
2023-06-04T04:55:21.584Z,2.67
2023-06-04T04:57:28.313Z,2.55
2023-06-04T04:59:34.755Z,2.53
2023-06-04T05:01:38.780Z,2.35
2023-06-04T05:03:43.179Z,2.80
2023-06-04T05:05:49.314Z,2.85
2023-06-04T05:07:52.901Z,2.75
2023-06-04T05:10:00.375Z,3.22
2023-06-04T05:12:06.974Z,3.10
2023-06-04T05:14:12.187Z,3.58
2023-06-04T05:16:16.875Z,3.25
2023-06-04T05:18:21.843Z,2.80
2023-06-04T05:20:28.196Z,2.53
2023-06-04T05:22:33.888Z,2.53
2023-06-04T05:24:38.476Z,2.72
2023-06-04T05:26:44.716Z,2.85
2023-06-04T05:28:58.146Z,2.35
2023-06-04T05:31:11.541Z,2.90
2023-06-04T05:33:20.799Z,3.13
2023-06-04T05:35:34.563Z,3.08
2023-06-04T05:37:41.941Z,2.63
2023-06-04T05:39:47.081Z,2.83
2023-06-04T05:41:53.099Z,3.05
2023-06-04T05:43:59.046Z,2.80
2023-06-04T05:46:04.341Z,2.92
2023-06-04T05:48:08.912Z,3.40
2023-06-04T05:50:12.982Z,2.78
2023-06-04T05:54:23.659Z,2.72
2023-06-04T05:56:28.454Z,3.10
2023-06-04T05:58:35.743Z,2.90
2023-06-04T06:00:42.357Z,3.28
2023-06-04T06:02:50.636Z,2.38
2023-06-04T06:05:09.457Z,2.40
2023-06-04T06:07:13.215Z,2.65
2023-06-04T06:09:18.556Z,2.92
2023-06-04T06:11:23.932Z,3.40
2023-06-04T06:13:28.903Z,2.58
2023-06-04T06:15:34.355Z,3.65
2023-06-04T06:19:45.428Z,3.13
2023-06-04T06:21:50.142Z,3.10
2023-06-04T06:23:54.513Z,3.05
2023-06-04T06:25:58.856Z,3.20
2023-06-04T06:28:06.444Z,2.80
2023-06-04T06:30:12.232Z,3.30
2023-06-04T06:32:17.389Z,2.83
2023-06-04T06:34:23.179Z,3.10
2023-06-04T06:36:27.611Z,2.75
2023-06-04T06:38:33.059Z,2.72
2023-06-04T06:40:38.469Z,2.80
2023-06-04T06:42:41.976Z,2.53
2023-06-04T06:44:48.122Z,2.65
2023-06-04T06:46:52.071Z,2.63
2023-06-04T06:48:56.441Z,2.50
2023-06-04T06:51:03.075Z,3.00
2023-06-04T06:53:06.741Z,2.85
2023-06-04T06:55:11.243Z,3.20
2023-06-04T06:57:15.213Z,3.47
2023-06-04T06:59:19.432Z,3.00
2023-06-04T07:01:23.545Z,3.33
2023-06-04T07:03:27.683Z,2.88
2023-06-04T07:05:31.454Z,2.30
2023-06-04T07:07:36.949Z,2.88
2023-06-04T07:09:40.584Z,3.05
2023-06-04T07:11:44.169Z,2.60
2023-06-04T07:13:48.121Z,2.88
2023-06-04T07:15:53.137Z,2.83
2023-06-04T07:17:57.984Z,2.65
2023-06-04T07:20:03.592Z,2.88
2023-06-04T07:22:07.773Z,3.42
2023-06-04T07:24:13.143Z,2.85
2023-06-04T07:26:18.899Z,2.78
2023-06-04T07:28:23.617Z,2.65
2023-06-04T07:30:28.021Z,3.15
2023-06-04T07:32:32.116Z,2.53
2023-06-04T07:36:42.792Z,3.25
2023-06-04T07:38:47.053Z,2.63
2023-06-04T07:40:53.662Z,3.10
2023-06-04T07:42:57.904Z,3.08
2023-06-04T07:45:04.480Z,2.90
2023-06-04T07:47:09.317Z,3.40
2023-06-04T07:49:14.109Z,3.20
2023-06-04T07:51:20.647Z,2.70
2023-06-04T07:53:24.743Z,2.72
2023-06-04T07:55:29.436Z,2.35
2023-06-04T07:59:38.829Z,2.83
2023-06-04T08:01:42.493Z,2.80
2023-06-04T08:03:46.252Z,2.47
2023-06-04T08:05:49.905Z,2.75
2023-06-04T08:07:54.772Z,2.83
2023-06-04T08:09:58.880Z,2.92
2023-06-04T08:12:02.557Z,2.50
2023-06-04T08:14:07.878Z,3.13
2023-06-04T08:16:12.183Z,2.72
2023-06-04T08:18:15.981Z,2.78
2023-06-04T08:20:20.480Z,2.70
2023-06-04T08:22:24.812Z,2.75
2023-06-04T08:24:28.451Z,2.80
2023-06-04T08:26:32.238Z,2.63
2023-06-04T08:28:35.965Z,2.60
2023-06-04T08:30:41.331Z,2.70
2023-06-04T08:32:45.282Z,2.80
2023-06-04T08:34:48.949Z,2.85
2023-06-04T08:36:53.081Z,2.70
2023-06-04T08:38:56.770Z,2.72
2023-06-04T08:41:09.758Z,2.85
2023-06-04T08:43:14.473Z,2.67
2023-06-04T08:45:19.437Z,2.53
2023-06-04T08:47:28.225Z,3.00
2023-06-04T08:49:36.400Z,2.72
2023-06-04T08:51:40.552Z,3.03
2023-06-04T08:53:48.939Z,2.42
2023-06-04T08:55:55.119Z,2.53
2023-06-04T08:57:59.219Z,2.75
2023-06-04T09:00:04.867Z,2.92
2023-06-04T09:02:09.445Z,2.70
2023-06-04T09:04:14.856Z,2.55
2023-06-04T09:06:18.755Z,2.05
2023-06-04T09:08:24.298Z,2.28
2023-06-04T09:10:29.184Z,2.53
2023-06-04T09:12:34.853Z,2.17
2023-06-04T09:14:38.919Z,1.92
2023-06-04T09:16:47.962Z,2.08
2023-06-04T09:18:52.784Z,2.15
2023-06-04T09:21:05.543Z,2.70
2023-06-04T09:23:17.001Z,2.50
2023-06-04T09:25:26.659Z,2.50
2023-06-04T09:27:42.570Z,1.95
2023-06-04T09:29:54.209Z,2.88
2023-06-04T09:32:01.777Z,2.10
2023-06-04T09:34:07.124Z,2.40
2023-06-04T09:36:12.665Z,1.85
2023-06-04T09:38:16.443Z,2.00
2023-06-04T09:40:22.374Z,2.00
2023-06-04T09:42:27.608Z,2.72
2023-06-04T09:44:32.485Z,2.03
2023-06-04T09:46:36.818Z,2.40
2023-06-04T09:48:41.346Z,1.88
2023-06-04T09:50:46.491Z,2.20
2023-06-04T09:52:52.661Z,1.83
2023-06-04T09:54:56.799Z,2.22
2023-06-04T09:57:02.395Z,2.53
2023-06-04T09:59:15.284Z,1.90
2023-06-04T10:01:20.325Z,2.25
2023-06-04T10:03:28.459Z,2.15
2023-06-04T10:05:35.355Z,1.83
2023-06-04T10:07:42.040Z,1.63
2023-06-04T10:09:52.968Z,1.90
2023-06-04T10:12:00.355Z,1.58
2023-06-04T10:14:10.470Z,1.63
2023-06-04T10:16:25.052Z,1.63
2023-06-04T10:18:37.574Z,1.70
2023-06-04T10:20:43.833Z,1.25
2023-06-04T10:22:52.950Z,1.67
2023-06-04T10:25:00.714Z,1.70
2023-06-04T10:27:11.861Z,1.50
2023-06-04T10:29:18.115Z,1.50
2023-06-04T10:31:22.709Z,1.85
2023-06-04T10:33:28.204Z,1.77
2023-06-04T10:35:33.548Z,1.67
2023-06-04T10:37:39.228Z,2.03
2023-06-04T10:39:54.200Z,1.63
2023-06-04T10:42:03.959Z,1.80
2023-06-04T10:44:10.854Z,1.90
2023-06-04T10:46:16.516Z,1.70
2023-06-04T10:48:21.818Z,1.70
2023-06-04T10:50:25.848Z,1.35
2023-06-04T10:52:29.971Z,1.40
2023-06-04T10:54:34.114Z,1.73
2023-06-04T10:56:39.243Z,1.55
2023-06-04T11:00:51.127Z,1.50
2023-06-04T11:02:56.769Z,1.52
2023-06-04T11:05:07.402Z,1.95
2023-06-04T11:07:11.349Z,1.27
2023-06-04T11:09:18.156Z,1.92
2023-06-04T11:11:22.726Z,1.60
2023-06-04T11:13:27.238Z,1.48
2023-06-04T11:15:42.294Z,1.80
2023-06-04T11:17:54.737Z,1.67
2023-06-04T11:19:58.912Z,1.30
2023-06-04T11:22:03.229Z,1.67
2023-06-04T11:24:09.806Z,1.35
2023-06-04T11:30:22.932Z,0.95
2023-06-04T11:32:28.294Z,1.20
2023-06-04T11:34:33.280Z,1.33
2023-06-04T11:36:37.706Z,1.50
2023-06-04T11:38:42.531Z,1.35
2023-06-04T11:42:51.286Z,1.35
2023-06-04T11:44:59.616Z,1.25
2023-06-04T11:47:03.581Z,1.40
2023-06-04T11:49:08.695Z,1.23
2023-06-04T11:51:13.071Z,1.20
2023-06-04T11:53:17.374Z,1.30
2023-06-04T11:55:22.021Z,1.27
2023-06-04T11:57:26.426Z,1.20
2023-06-04T11:59:34.620Z,1.50
2023-06-04T12:01:43.112Z,1.60
2023-06-04T12:03:48.146Z,1.98
2023-06-04T12:05:53.594Z,1.75
2023-06-04T12:08:07.833Z,2.40
2023-06-04T12:10:13.167Z,1.70
2023-06-04T12:12:17.137Z,1.73
2023-06-04T12:14:23.196Z,1.63
2023-06-04T12:16:27.600Z,1.52
2023-06-04T12:18:32.215Z,2.33
2023-06-04T12:20:40.648Z,1.90
2023-06-04T12:22:49.429Z,1.52
2023-06-04T12:24:55.764Z,1.63
2023-06-04T12:27:10.596Z,1.65
2023-06-04T12:29:16.828Z,2.00
2023-06-04T12:31:20.399Z,1.80
2023-06-04T12:33:24.105Z,2.00
2023-06-04T12:35:29.284Z,1.85
2023-06-04T12:37:32.933Z,2.13
2023-06-04T12:39:40.607Z,2.03
2023-06-04T12:41:48.376Z,1.80
2023-06-04T12:43:52.152Z,1.95
2023-06-04T12:45:56.214Z,1.50
2023-06-04T12:48:00.370Z,2.25
2023-06-04T12:50:04.437Z,1.88
2023-06-04T12:52:09.681Z,1.75
2023-06-04T12:54:13.762Z,1.83
2023-06-04T12:56:19.252Z,2.28
2023-06-04T12:58:23.029Z,1.83
2023-06-04T13:00:27.491Z,1.80
2023-06-04T13:02:32.252Z,2.40
2023-06-04T13:04:35.889Z,2.05
2023-06-04T13:06:40.469Z,1.77
2023-06-04T13:08:46.072Z,1.92
2023-06-04T13:10:52.326Z,1.73
2023-06-04T13:13:02.922Z,1.80
2023-06-04T13:15:08.871Z,2.13
2023-06-04T13:17:22.067Z,2.00
2023-06-04T13:19:27.966Z,1.90
2023-06-04T13:21:32.328Z,1.85
2023-06-04T13:23:49.805Z,2.15
2023-06-04T13:25:55.791Z,2.45
2023-06-04T13:28:01.848Z,2.17
2023-06-04T13:30:07.797Z,2.25
2023-06-04T13:32:13.183Z,2.03
2023-06-04T13:34:26.971Z,2.28
2023-06-04T13:36:33.176Z,2.03
2023-06-04T13:38:37.123Z,1.80
2023-06-04T13:40:41.490Z,2.15
2023-06-04T13:42:46.344Z,2.03
2023-06-04T13:44:51.297Z,2.20
2023-06-04T13:46:57.185Z,2.75
2023-06-04T13:49:01.335Z,2.00
2023-06-04T13:51:06.282Z,2.00
2023-06-04T13:53:11.505Z,1.88
2023-06-04T13:57:19.886Z,1.83
2023-06-04T13:59:23.624Z,2.00
2023-06-04T14:01:29.721Z,1.88
2023-06-04T14:03:34.049Z,2.42
2023-06-04T14:05:38.101Z,2.30
2023-06-04T14:07:41.589Z,1.77
2023-06-04T14:09:45.790Z,1.90
2023-06-04T14:11:51.958Z,1.75
2023-06-04T14:13:56.113Z,2.15
2023-06-04T14:15:59.722Z,1.92
2023-06-04T14:18:06.637Z,2.30
2023-06-04T14:20:11.947Z,2.00
2023-06-04T14:22:16.545Z,1.85
2023-06-04T14:24:20.478Z,1.70
2023-06-04T14:26:26.546Z,2.50
2023-06-04T14:28:30.686Z,1.90
2023-06-04T14:30:34.855Z,1.65
2023-06-04T14:32:41.707Z,1.77
2023-06-04T14:34:46.829Z,1.75
2023-06-04T14:36:50.725Z,1.65
2023-06-04T14:38:54.426Z,2.10
2023-06-04T14:40:59.109Z,2.15
2023-06-04T14:43:04.441Z,2.40
2023-06-04T14:45:11.281Z,1.40
2023-06-04T14:47:15.473Z,1.60
2023-06-04T14:49:19.225Z,2.00
2023-06-04T14:51:24.849Z,1.70
2023-06-04T14:53:28.544Z,1.88
2023-06-04T14:55:32.028Z,2.28
2023-06-04T14:57:35.979Z,1.73
2023-06-04T14:59:42.680Z,1.85
2023-06-04T15:01:47.768Z,1.80
2023-06-04T15:03:52.342Z,1.67
2023-06-04T15:06:10.678Z,2.10
2023-06-04T15:08:25.631Z,1.83
2023-06-04T15:10:30.005Z,2.20
2023-06-04T15:12:37.867Z,1.92
2023-06-04T15:14:41.681Z,1.88
2023-06-04T15:16:45.936Z,2.20
2023-06-04T15:18:51.381Z,1.92
2023-06-04T15:20:56.749Z,1.77
2023-06-04T15:23:01.395Z,1.80
2023-06-04T15:25:08.117Z,1.40
2023-06-04T15:27:12.533Z,2.40
2023-06-04T15:29:16.768Z,2.38
2023-06-04T15:31:21.571Z,2.03
2023-06-04T15:33:26.293Z,2.30
2023-06-04T15:35:30.170Z,2.13
2023-06-04T15:37:33.913Z,1.75
2023-06-04T15:39:38.418Z,1.75
2023-06-04T15:41:43.919Z,1.92
2023-06-04T15:43:47.637Z,1.80
2023-06-04T15:45:51.595Z,1.67
2023-06-04T15:47:55.330Z,1.92
2023-06-04T15:49:59.478Z,2.00
2023-06-04T15:52:05.158Z,1.88
2023-06-04T15:54:10.335Z,1.83
2023-06-04T15:56:14.871Z,1.80
2023-06-04T15:58:20.619Z,1.63
2023-06-04T16:00:25.679Z,1.88
2023-06-04T16:02:32.054Z,1.52
2023-06-04T16:04:37.107Z,1.60
2023-06-04T16:06:42.219Z,1.55
2023-06-04T16:10:52.466Z,2.00
2023-06-04T16:12:56.136Z,1.88
2023-06-04T16:15:01.502Z,2.20
2023-06-04T16:17:05.409Z,1.58
2023-06-04T16:19:09.016Z,2.15
2023-06-04T16:21:14.790Z,1.75
2023-06-04T16:23:20.179Z,1.33
2023-06-04T16:25:25.564Z,1.83
2023-06-04T16:27:29.883Z,1.73
2023-06-04T16:29:35.406Z,1.65
2023-06-04T16:31:41.141Z,1.30
2023-06-04T16:33:47.317Z,1.70
2023-06-04T16:35:54.851Z,1.45
2023-06-04T16:37:58.643Z,1.65
2023-06-04T16:40:03.300Z,1.80
2023-06-04T16:42:09.096Z,1.67
2023-06-04T16:44:13.009Z,1.75
2023-06-04T16:46:17.470Z,1.55
2023-06-04T16:48:23.523Z,1.35
2023-06-04T16:50:32.768Z,1.52
2023-06-04T16:52:37.461Z,1.48
2023-06-04T16:54:43.764Z,1.48
2023-06-04T16:56:48.512Z,1.90
2023-06-04T16:58:52.630Z,1.70
2023-06-04T17:00:57.582Z,1.65
2023-06-04T17:05:20.464Z,1.30
2023-06-04T17:07:30.250Z,1.95
2023-06-04T17:09:35.187Z,1.25
2023-06-04T17:11:40.349Z,1.98
2023-06-04T17:13:44.432Z,1.40
2023-06-04T17:15:48.971Z,2.08
2023-06-04T17:17:53.584Z,1.10
2023-06-04T17:22:06.819Z,1.38
2023-06-04T17:24:11.446Z,1.95
2023-06-04T17:26:16.697Z,1.63
2023-06-04T17:28:21.797Z,1.80
2023-06-04T17:30:25.815Z,1.80
2023-06-04T17:32:32.260Z,1.50
2023-06-04T17:34:37.062Z,1.05
2023-06-04T17:38:47.710Z,1.42
2023-06-04T17:40:53.956Z,1.70
2023-06-04T17:42:57.838Z,1.70
2023-06-04T17:45:05.433Z,1.75
2023-06-04T17:47:09.147Z,1.60
2023-06-04T17:49:14.446Z,1.60
2023-06-04T17:51:18.358Z,1.63
2023-06-04T17:53:22.188Z,1.65
2023-06-04T17:55:27.359Z,2.00
2023-06-04T17:57:31.833Z,1.60
2023-06-04T17:59:36.954Z,1.75
2023-06-04T18:01:44.280Z,1.45
2023-06-04T18:03:51.732Z,1.50
2023-06-04T18:05:56.005Z,2.03
2023-06-04T18:07:59.741Z,2.00
2023-06-04T18:10:03.526Z,1.67
2023-06-04T18:12:12.219Z,1.85
2023-06-04T18:14:16.070Z,2.15
2023-06-04T18:16:20.011Z,2.05
2023-06-04T18:18:25.198Z,2.10
2023-06-04T18:20:29.155Z,2.20
2023-06-04T18:22:32.861Z,2.17
2023-06-04T18:24:38.351Z,2.17
2023-06-04T18:26:42.175Z,2.58
2023-06-04T18:28:47.935Z,2.80
2023-06-04T18:30:51.517Z,1.70
2023-06-04T18:32:55.838Z,1.73
2023-06-04T18:34:59.937Z,1.80
2023-06-04T18:37:03.975Z,1.50
2023-06-04T18:39:07.480Z,1.63
2023-06-04T18:41:11.218Z,1.83
2023-06-04T18:43:14.765Z,2.58
2023-06-04T18:45:20.093Z,1.50
2023-06-04T18:47:23.931Z,1.58
2023-06-04T18:49:27.732Z,1.42
2023-06-04T18:51:32.154Z,1.60
2023-06-04T18:53:35.929Z,1.73
2023-06-04T18:55:39.898Z,1.70
2023-06-04T18:57:44.002Z,1.50
2023-06-04T18:59:47.753Z,1.73
2023-06-04T19:01:52.844Z,2.28
2023-06-04T19:03:56.564Z,1.73
2023-06-04T19:06:00.470Z,1.80
2023-06-04T19:08:04.263Z,1.80
2023-06-04T19:10:09.582Z,1.50
2023-06-04T19:12:13.202Z,1.60
2023-06-04T19:14:16.838Z,1.58
2023-06-04T19:16:20.789Z,1.90
2023-06-04T19:18:26.460Z,1.58
2023-06-04T19:20:30.664Z,1.50
2023-06-04T19:22:34.670Z,1.73
2023-06-04T19:24:38.527Z,2.10
2023-06-04T19:26:43.969Z,1.75
2023-06-04T19:28:48.999Z,1.83
2023-06-04T19:30:53.723Z,1.90
2023-06-04T19:32:57.565Z,1.65
2023-06-04T19:35:03.696Z,1.65
2023-06-04T19:37:08.889Z,1.95
2023-06-04T19:39:13.005Z,2.25
2023-06-04T19:41:16.935Z,2.22
2023-06-04T19:43:21.676Z,1.95
2023-06-04T19:45:25.664Z,2.00
2023-06-04T19:47:29.554Z,2.10
2023-06-04T19:49:33.133Z,1.55
2023-06-04T19:51:38.621Z,2.40
2023-06-04T19:53:42.199Z,1.90
2023-06-04T19:55:46.443Z,1.92
2023-06-04T19:57:50.432Z,2.35
2023-06-04T19:59:55.065Z,2.28
2023-06-04T20:01:58.798Z,2.10
2023-06-04T20:04:02.847Z,2.13
2023-06-04T20:06:08.042Z,2.05
2023-06-04T20:08:14.639Z,2.35
2023-06-04T20:10:19.361Z,2.38
2023-06-04T20:12:23.441Z,2.25
2023-06-04T20:14:27.207Z,1.98
2023-06-04T20:16:31.571Z,2.28
2023-06-04T20:18:35.736Z,2.67
2023-06-04T20:20:40.867Z,2.08
2023-06-04T20:24:49.979Z,2.15
2023-06-04T20:26:54.079Z,2.42
2023-06-04T20:28:58.625Z,2.17
2023-06-04T20:31:02.366Z,2.35
2023-06-04T20:33:06.280Z,2.30
2023-06-04T20:35:11.188Z,2.35
2023-06-04T20:37:15.054Z,2.50
2023-06-04T20:39:18.604Z,2.55
2023-06-04T20:41:25.160Z,2.13
2023-06-04T20:43:28.773Z,2.80
2023-06-04T20:45:32.388Z,3.33
2023-06-04T20:47:36.092Z,2.80
2023-06-04T20:49:39.869Z,2.47
2023-06-04T20:51:43.499Z,2.78
2023-06-04T20:53:49.214Z,2.45
2023-06-04T20:55:53.410Z,2.28
2023-06-04T20:58:00.406Z,3.42
2023-06-04T21:00:04.768Z,2.70
2023-06-04T21:02:11.973Z,2.70
2023-06-04T21:04:16.822Z,3.05
2023-06-04T21:06:21.366Z,3.20
2023-06-04T21:08:27.230Z,3.42
2023-06-04T21:10:32.594Z,2.42
2023-06-04T21:12:37.594Z,3.67
2023-06-04T21:14:44.373Z,3.00
2023-06-04T21:16:49.947Z,2.58
2023-06-04T21:18:54.370Z,2.30
2023-06-04T21:20:59.271Z,2.45
2023-06-04T21:25:06.376Z,2.42
2023-06-04T21:27:10.041Z,2.22
2023-06-04T21:29:14.685Z,2.72
2023-06-04T21:31:20.537Z,2.67
2023-06-04T21:33:25.406Z,2.38
2023-06-04T21:35:29.895Z,2.38
2023-06-04T21:37:34.340Z,2.72
2023-06-04T21:39:38.473Z,2.33
2023-06-04T21:41:43.155Z,2.80
2023-06-04T21:43:47.286Z,2.90
2023-06-04T21:45:52.349Z,2.58
2023-06-04T21:47:58.769Z,2.80
2023-06-04T21:50:03.466Z,2.70
2023-06-04T21:52:17.743Z,3.42
2023-06-04T21:54:30.739Z,2.90
2023-06-04T21:56:34.662Z,2.60
2023-06-04T21:58:40.572Z,2.45
2023-06-04T22:00:46.187Z,2.90
2023-06-04T22:02:50.638Z,2.25
2023-06-04T22:07:02.081Z,2.53
2023-06-04T22:09:07.448Z,2.67
2023-06-04T22:11:11.888Z,2.35
2023-06-04T22:13:19.047Z,2.20
2023-06-04T22:15:24.268Z,2.35
2023-06-04T22:17:28.200Z,2.55
2023-06-04T22:19:32.333Z,2.38
2023-06-04T22:21:38.881Z,2.67
2023-06-04T22:23:42.860Z,2.95
2023-06-04T22:25:48.844Z,3.03
2023-06-04T22:27:53.939Z,3.10
2023-06-04T22:29:58.388Z,3.10
2023-06-04T22:32:03.454Z,2.88
2023-06-04T22:34:07.444Z,2.80
2023-06-04T22:36:13.233Z,2.53
2023-06-04T22:38:19.823Z,3.03
2023-06-04T22:40:26.072Z,2.88
2023-06-04T22:42:30.306Z,3.35
2023-06-04T22:44:34.174Z,2.55
2023-06-04T22:46:38.536Z,2.80
2023-06-04T22:48:42.997Z,3.17
2023-06-04T22:50:50.222Z,2.83
2023-06-04T22:52:54.031Z,2.75
2023-06-04T22:54:59.337Z,2.83
2023-06-04T22:57:03.052Z,2.88
2023-06-04T22:59:07.377Z,2.78
2023-06-04T23:01:12.349Z,2.85
2023-06-04T23:03:17.972Z,2.90
2023-06-04T23:05:23.754Z,2.75
2023-06-04T23:07:27.814Z,2.47
2023-06-04T23:09:32.763Z,2.58
2023-06-04T23:11:39.045Z,2.78
2023-06-04T23:13:42.704Z,3.42
2023-06-04T23:15:46.372Z,2.67
2023-06-04T23:17:51.736Z,3.03
2023-06-04T23:19:56.889Z,3.03
2023-06-04T23:22:00.987Z,2.63
2023-06-04T23:24:05.574Z,2.80
2023-06-04T23:26:10.057Z,2.58
2023-06-04T23:28:16.085Z,2.47
2023-06-04T23:30:20.731Z,2.53
2023-06-04T23:32:24.960Z,2.33
2023-06-04T23:34:29.673Z,2.28
2023-06-04T23:36:33.201Z,2.33
2023-06-04T23:38:38.288Z,2.50
2023-06-04T23:40:42.749Z,2.50
2023-06-04T23:42:47.493Z,2.78
2023-06-04T23:44:52.745Z,2.53
2023-06-04T23:46:56.718Z,2.83
2023-06-04T23:49:01.418Z,2.45
2023-06-04T23:53:08.886Z,2.58
2023-06-04T23:55:13.219Z,3.20
2023-06-04T23:57:16.930Z,3.53
2023-06-04T23:59:20.684Z,2.50
